White Bear Township, Minnesota
Current Conditions -  °F | °C
As of 12:51 PM on Friday 24 Oct 2014 (Local Time) from K21D Reporting Station
Overcast Overcast  
Wind Chill: 61°   Ceiling: 1700
Heat Index: 61°   Visibility: 10mi
Dew Point: 54°   Wind: 8mph
Humidity: 77%   Direction: 180°S
Pressure: 29.87"   Gusts: NA
Location:  45.0958°N, 93.0043°W
Report Text: K21D 241751Z AUTO 18007KT 10SM OVC017 16/12 A2987 RMK AO2
Loading
Personal Weather Stations






























Interactive Weather Map
Tropical Storm Tracking
New forecast layout! Learn more

10-Day Weather Forecast

Advertisements
Track Severe Weather on mobile